»·PEaware :: SAS250 ENVA-ENHD

SAS250 :: ENVA-ENHD

FLIGHT INFORMATION

Flight Status: Arrived
Operator:
SAS
More flights by this operator :: More flights under this callsign
Pilot: Andrew J. (13363)
Aircraft: BOEING 737-800
(B738)
More flights by this aircraft type
Origin: ENVA Vaernes AB
Norway
Destination: ENHD Karmoy
Norway
More flights between these airports :: More routes between these airports
Route: OSMUM1B OSMUM Z286 LUNUR URDER URDER1U
File this flight plan on PilotEdge
Remarks:
Altitude:
(Current/Filed)
36,000ft
Speed:
(Current/Filed)
280kts
Departed: 25-Mar-17 10:00 PM
Arrived: 25-Mar-17 10:56 PM
Distance/Time
Traveled:
296nm/0:56
Distance/Time
To Go:
Arrived

Flight Plot

Page will automatically refresh every two minutes.

Flight plan parsing failed; only flown route is shown


Map Options




Map Legend


Flown Route
Filed Route
Departure Airport
Arrival Airport
Navaid (VOR, NDB)
Fix

Horizontal Profiles

Position Reports

Time Latitude Longitude Heading Altitude Ground
Speed
25-Mar-17 21:56 63.453049 10.925096 266 65ft 0kts
25-Mar-17 21:57 63.454601 10.924071 351 65ft 18kts
25-Mar-17 21:58 63.456019 10.930685 89 65ft 17kts
25-Mar-17 21:59 63.456387 10.940190 39 65ft 8kts
25-Mar-17 22:00 63.457571 10.941403 262 65ft 0kts
25-Mar-17 22:01 63.457775 10.886807 272 1003ft 146kts
25-Mar-17 22:02 63.458803 10.794360 274 4290ft 151kts
25-Mar-17 22:03 63.458659 10.678285 274 6560ft 217kts
25-Mar-17 22:04 63.449404 10.544138 238 9053ft 260kts
25-Mar-17 22:05 63.374258 10.511436 160 10884ft 345kts
25-Mar-17 22:06 63.321609 10.679080 86 13444ft 350kts
25-Mar-17 22:07 63.301446 10.886166 129 15949ft 386kts
25-Mar-17 22:08 63.219244 10.966388 187 18110ft 394kts
25-Mar-17 22:09 63.129252 10.851431 239 20108ft 385kts
25-Mar-17 22:10 63.060766 10.665040 240 22831ft 399kts
25-Mar-17 22:11 62.990042 10.473155 239 25201ft 415kts
25-Mar-17 22:12 62.917835 10.279313 238 27799ft 418kts
25-Mar-17 22:13 62.850629 10.100819 238 30064ft 415kts
25-Mar-17 22:14 62.771740 9.923815 233 32012ft 421kts
25-Mar-17 22:15 62.691215 9.748998 233 33777ft 420kts
25-Mar-17 22:16 62.609364 9.572843 232 35284ft 421kts
25-Mar-17 22:17 62.526230 9.395444 232 36051ft 427kts
25-Mar-17 22:18 62.455321 9.245189 231 36147ft 450kts
25-Mar-17 22:19 62.364368 9.054317 230 36157ft 462kts
25-Mar-17 22:20 62.273105 8.864413 231 36184ft 462kts
25-Mar-17 22:21 62.181320 8.674945 231 36186ft 461kts
25-Mar-17 22:22 62.089390 8.486953 231 36187ft 461kts
25-Mar-17 22:23 62.001801 8.309358 230 36192ft 463kts
25-Mar-17 22:24 61.914127 8.133051 230 36191ft 462kts
25-Mar-17 22:25 61.836872 7.978982 230 36179ft 462kts
25-Mar-17 22:26 61.746805 7.800696 230 36179ft 462kts
25-Mar-17 22:27 61.653244 7.617044 230 36180ft 463kts
25-Mar-17 22:28 61.559303 7.434344 230 36180ft 463kts
25-Mar-17 22:29 61.488790 7.298177 229 36239ft 464kts
25-Mar-17 22:30 61.406334 7.139120 224 36329ft 479kts
25-Mar-17 22:31 61.307306 6.951611 223 36348ft 499kts
25-Mar-17 22:32 61.206531 6.761964 224 35268ft 481kts
25-Mar-17 22:33 61.111849 6.585087 224 33389ft 458kts
25-Mar-17 22:34 61.017860 6.410898 224 31533ft 463kts
25-Mar-17 22:35 60.935006 6.258607 223 29789ft 460kts
25-Mar-17 22:36 60.864677 6.130205 223 28236ft 449kts
25-Mar-17 22:37 60.775885 5.977293 221 26325ft 437kts
25-Mar-17 22:38 60.686632 5.828066 221 24443ft 425kts
25-Mar-17 22:39 60.603900 5.690679 221 22716ft 414kts
25-Mar-17 22:40 60.528375 5.566051 221 21149ft 404kts
25-Mar-17 22:41 60.449048 5.435974 221 19508ft 394kts
25-Mar-17 22:42 60.372170 5.310680 220 17789ft 388kts
25-Mar-17 22:43 60.286058 5.214088 185 15935ft 370kts
25-Mar-17 22:44 60.190711 5.194509 182 14358ft 359kts
25-Mar-17 22:45 60.095149 5.179338 182 12784ft 349kts
25-Mar-17 22:46 60.002344 5.165277 182 11260ft 340kts
25-Mar-17 22:47 59.911122 5.151617 182 9769ft 326kts
25-Mar-17 22:48 59.826938 5.139006 183 8447ft 339kts
25-Mar-17 22:49 59.736551 5.142815 172 6967ft 329kts
25-Mar-17 22:50 59.647073 5.156350 181 5646ft 323kts
25-Mar-17 22:51 59.564711 5.103489 201 4562ft 302kts
25-Mar-17 22:52 59.499401 5.022646 217 3669ft 262kts
25-Mar-17 22:53 59.440159 5.037604 137 2922ft 210kts
25-Mar-17 22:54 59.396822 5.105883 135 1353ft 182kts
25-Mar-17 22:55 59.367023 5.164331 133 587ft 142kts
25-Mar-17 22:56 59.342304 5.214300 133 85ft 43kts
25-Mar-17 22:57 59.341765 5.215420 312 85ft 14kts
25-Mar-17 22:58 59.344030 5.215680 46 85ft 7kts
25-Mar-17 22:59 59.344240 5.216131 45 85ft 0kts
25-Mar-17 23:00 59.362126 5.174207 133 464ft 143kts
25-Mar-17 23:01 59.345792 5.207164 133 85ft 126kts
25-Mar-17 23:02 59.349462 5.199856 133 115ft 139kts
25-Mar-17 23:03 59.344610 5.209548 132 85ft 108kts
25-Mar-17 23:04 59.344240 5.216131 45 85ft 0kts
25-Mar-17 23:05 59.344240 5.216131 45 85ft 0kts

Navigation Log

Ident Type
Flight plan parsing failed, navigation log unavailable